sensor_id;sensor_type;location;lat;lon;timestamp;pressure;altitude;pressure_sealevel;temperature;humidity
77871;BME280;67067;46.850;7.578;2023-05-29T00:00:18;95154.88;;;11.99;46.50
77871;BME280;67067;46.850;7.578;2023-05-29T00:01:22;95152.28;;;12.10;46.47
77871;BME280;67067;46.850;7.578;2023-05-29T00:02:25;95160.22;;;12.10;46.62
77871;BME280;67067;46.850;7.578;2023-05-29T00:03:27;95153.06;;;12.10;46.69
77871;BME280;67067;46.850;7.578;2023-05-29T00:04:31;95159.19;;;12.11;46.36
77871;BME280;67067;46.850;7.578;2023-05-29T00:05:35;95154.41;;;12.08;46.52
77871;BME280;67067;46.850;7.578;2023-05-29T00:06:38;95154.94;;;12.10;46.53
77871;BME280;67067;46.850;7.578;2023-05-29T00:07:42;95152.53;;;12.08;46.57
77871;BME280;67067;46.850;7.578;2023-05-29T00:08:43;95154.34;;;11.97;46.52
77871;BME280;67067;46.850;7.578;2023-05-29T00:09:52;95159.41;;;12.09;46.48
77871;BME280;67067;46.850;7.578;2023-05-29T00:10:58;95151.75;;;12.08;46.67
77871;BME280;67067;46.850;7.578;2023-05-29T00:12:04;95148.28;;;12.02;47.46
77871;BME280;67067;46.850;7.578;2023-05-29T00:13:07;95149.59;;;11.99;47.23
77871;BME280;67067;46.850;7.578;2023-05-29T00:14:11;95150.63;;;11.98;47.17
77871;BME280;67067;46.850;7.578;2023-05-29T00:15:17;95151.97;;;11.96;47.03
77871;BME280;67067;46.850;7.578;2023-05-29T00:16:19;95156.47;;;11.95;46.99
77871;BME280;67067;46.850;7.578;2023-05-29T00:17:20;95154.31;;;11.82;47.08
77871;BME280;67067;46.850;7.578;2023-05-29T00:18:27;95152.75;;;11.91;46.91
77871;BME280;67067;46.850;7.578;2023-05-29T00:19:29;95153.56;;;11.92;46.97
77871;BME280;67067;46.850;7.578;2023-05-29T00:20:38;95153.28;;;11.88;46.89
77871;BME280;67067;46.850;7.578;2023-05-29T00:21:42;95152.75;;;11.86;46.94
77871;BME280;67067;46.850;7.578;2023-05-29T00:22:44;95154.84;;;11.84;47.04
77871;BME280;67067;46.850;7.578;2023-05-29T00:23:46;95152.94;;;11.69;47.06
77871;BME280;67067;46.850;7.578;2023-05-29T00:24:54;95151.13;;;11.80;46.94
77871;BME280;67067;46.850;7.578;2023-05-29T00:25:58;95154.59;;;11.80;47.16
77871;BME280;67067;46.850;7.578;2023-05-29T00:27:00;95157.72;;;11.67;47.43
77871;BME280;67067;46.850;7.578;2023-05-29T00:28:02;95149.53;;;11.74;47.31
77871;BME280;67067;46.850;7.578;2023-05-29T00:29:05;95145.28;;;11.78;47.28
77871;BME280;67067;46.850;7.578;2023-05-29T00:30:07;95156.94;;;11.72;47.40
77871;BME280;67067;46.850;7.578;2023-05-29T00:31:09;95154.81;;;11.74;47.30
77871;BME280;67067;46.850;7.578;2023-05-29T00:32:16;95158.81;;;11.76;47.30
77871;BME280;67067;46.850;7.578;2023-05-29T00:33:19;95158.00;;;11.71;47.15
77871;BME280;67067;46.850;7.578;2023-05-29T00:34:26;95159.06;;;11.75;47.08
77871;BME280;67067;46.850;7.578;2023-05-29T00:35:30;95158.00;;;11.76;47.11
77871;BME280;67067;46.850;7.578;2023-05-29T00:36:39;95156.41;;;11.75;47.27
77871;BME280;67067;46.850;7.578;2023-05-29T00:37:41;95156.94;;;11.72;47.25
77871;BME280;67067;46.850;7.578;2023-05-29T00:38:44;95160.66;;;11.76;47.67
77871;BME280;67067;46.850;7.578;2023-05-29T00:39:45;95164.31;;;11.59;47.75
77871;BME280;67067;46.850;7.578;2023-05-29T00:40:52;95156.13;;;11.71;47.65
77871;BME280;67067;46.850;7.578;2023-05-29T00:41:54;95160.63;;;11.60;47.73
77871;BME280;67067;46.850;7.578;2023-05-29T00:42:57;95153.22;;;11.67;47.52
77871;BME280;67067;46.850;7.578;2023-05-29T00:44:25;95154.81;;;11.74;47.43
77871;BME280;67067;46.850;7.578;2023-05-29T00:45:29;95154.03;;;11.73;47.37
77871;BME280;67067;46.850;7.578;2023-05-29T00:46:36;95152.94;;;11.69;47.50
77871;BME280;67067;46.850;7.578;2023-05-29T00:47:40;95156.41;;;11.69;47.43
77871;BME280;67067;46.850;7.578;2023-05-29T00:48:50;95153.75;;;11.69;47.72
77871;BME280;67067;46.850;7.578;2023-05-29T00:49:58;95151.09;;;11.64;47.80
77871;BME280;67067;46.850;7.578;2023-05-29T00:50:59;95149.50;;;11.63;48.03
77871;BME280;67067;46.850;7.578;2023-05-29T00:52:02;95151.88;;;11.65;47.67
77871;BME280;67067;46.850;7.578;2023-05-29T00:53:14;95155.59;;;11.64;47.85
77871;BME280;67067;46.850;7.578;2023-05-29T00:54:21;95153.22;;;11.62;47.80
77871;BME280;67067;46.850;7.578;2023-05-29T00:55:26;95153.72;;;11.59;47.98
77871;BME280;67067;46.850;7.578;2023-05-29T00:56:31;95151.31;;;11.58;48.02
77871;BME280;67067;46.850;7.578;2023-05-29T00:57:35;95156.34;;;11.54;48.21
77871;BME280;67067;46.850;7.578;2023-05-29T00:58:39;95155.81;;;11.52;48.19
77871;BME280;67067;46.850;7.578;2023-05-29T00:59:57;95153.09;;;11.42;48.55
77871;BME280;67067;46.850;7.578;2023-05-29T01:01:00;95157.88;;;11.45;48.32
77871;BME280;67067;46.850;7.578;2023-05-29T01:02:04;95159.19;;;11.42;48.55
77871;BME280;67067;46.850;7.578;2023-05-29T01:03:06;95160.25;;;11.41;48.80
77871;BME280;67067;46.850;7.578;2023-05-29T01:04:19;95156.25;;;11.38;48.70
77871;BME280;67067;46.850;7.578;2023-05-29T01:05:22;95160.50;;;11.39;48.71
77871;BME280;67067;46.850;7.578;2023-05-29T01:06:26;95156.25;;;11.38;48.67
77871;BME280;67067;46.850;7.578;2023-05-29T01:07:28;95149.28;;;11.22;48.85
77871;BME280;67067;46.850;7.578;2023-05-29T01:08:32;95157.00;;;11.29;48.82
77871;BME280;67067;46.850;7.578;2023-05-29T01:09:39;95154.63;;;11.32;48.68
77871;BME280;67067;46.850;7.578;2023-05-29T01:10:41;95157.28;;;11.32;48.77
77871;BME280;67067;46.850;7.578;2023-05-29T01:13:23;95157.00;;;11.29;49.23
77871;BME280;67067;46.850;7.578;2023-05-29T01:14:53;95156.69;;;11.20;49.28
77871;BME280;67067;46.850;7.578;2023-05-29T01:16:09;95159.88;;;11.22;49.44
77871;BME280;67067;46.850;7.578;2023-05-29T01:18:38;95162.50;;;11.17;49.75
77871;BME280;67067;46.850;7.578;2023-05-29T01:27:52;95161.88;;;10.99;50.50
77871;BME280;67067;46.850;7.578;2023-05-29T01:29:06;95162.66;;;11.00;50.34
77871;BME280;67067;46.850;7.578;2023-05-29T01:30:12;95161.88;;;10.99;50.00
77871;BME280;67067;46.850;7.578;2023-05-29T01:31:21;95155.00;;;10.98;50.28
77871;BME280;67067;46.850;7.578;2023-05-29T01:32:26;95161.88;;;10.99;50.13
77871;BME280;67067;46.850;7.578;2023-05-29T01:33:38;95158.19;;;11.00;50.05
77871;BME280;67067;46.850;7.578;2023-05-29T01:34:50;95162.66;;;11.00;49.87
77871;BME280;67067;46.850;7.578;2023-05-29T01:35:55;95152.06;;;11.00;49.99
77871;BME280;67067;46.850;7.578;2023-05-29T01:36:57;95150.75;;;10.97;50.09
77871;BME280;67067;46.850;7.578;2023-05-29T01:38:03;95156.84;;;11.03;50.04
77871;BME280;67067;46.850;7.578;2023-05-29T01:39:16;95153.66;;;11.01;50.04
77871;BME280;67067;46.850;7.578;2023-05-29T01:40:20;95152.59;;;10.96;49.99
77871;BME280;67067;46.850;7.578;2023-05-29T01:41:26;95149.69;;;10.98;49.94
77871;BME280;67067;46.850;7.578;2023-05-29T01:42:28;95155.22;;;10.96;50.10
77871;BME280;67067;46.850;7.578;2023-05-29T01:43:34;95157.06;;;10.91;50.17
77871;BME280;67067;46.850;7.578;2023-05-29T01:44:37;95162.34;;;10.91;50.15
77871;BME280;67067;46.850;7.578;2023-05-29T01:45:52;95155.47;;;10.90;50.27
77871;BME280;67067;46.850;7.578;2023-05-29T01:46:57;95158.63;;;10.87;50.12
77871;BME280;67067;46.850;7.578;2023-05-29T01:48:07;95160.72;;;10.85;50.08
77871;BME280;67067;46.850;7.578;2023-05-29T01:49:21;95161.25;;;10.81;50.38
77871;BME280;67067;46.850;7.578;2023-05-29T01:50:42;95163.84;;;10.76;50.67
77871;BME280;67067;46.850;7.578;2023-05-29T01:51:46;95159.34;;;10.77;50.61
77871;BME280;67067;46.850;7.578;2023-05-29T01:52:48;95160.38;;;10.71;50.95
77871;BME280;67067;46.850;7.578;2023-05-29T01:54:01;95159.81;;;10.68;50.87
77871;BME280;67067;46.850;7.578;2023-05-29T01:55:07;95156.34;;;10.68;50.72
77871;BME280;67067;46.850;7.578;2023-05-29T01:56:12;95157.69;;;10.65;50.78
77871;BME280;67067;46.850;7.578;2023-05-29T01:57:22;95163.22;;;10.64;50.63
77871;BME280;67067;46.850;7.578;2023-05-29T01:58:27;95161.66;;;10.68;50.75
77871;BME280;67067;46.850;7.578;2023-05-29T01:59:29;95157.69;;;10.65;50.60
77871;BME280;67067;46.850;7.578;2023-05-29T02:00:31;95154.53;;;10.68;50.93
77871;BME280;67067;46.850;7.578;2023-05-29T02:01:33;95154.75;;;10.67;50.77
77871;BME280;67067;46.850;7.578;2023-05-29T02:02:40;95157.91;;;10.64;50.78
77871;BME280;67067;46.850;7.578;2023-05-29T02:03:42;95155.28;;;10.64;50.68
77871;BME280;67067;46.850;7.578;2023-05-29T02:04:46;95157.38;;;10.62;50.74
77871;BME280;67067;46.850;7.578;2023-05-29T02:06:01;95149.94;;;10.59;50.68
77871;BME280;67067;46.850;7.578;2023-05-29T02:07:08;95155.78;;;10.61;51.18
77871;BME280;67067;46.850;7.578;2023-05-29T02:08:17;95158.19;;;10.62;50.79
77871;BME280;67067;46.850;7.578;2023-05-29T02:09:21;95158.69;;;10.59;50.67
77871;BME280;67067;46.850;7.578;2023-05-29T02:10:26;95152.84;;;10.57;50.95
77871;BME280;67067;46.850;7.578;2023-05-29T02:11:31;95151.50;;;10.55;50.84
77871;BME280;67067;46.850;7.578;2023-05-29T02:12:41;95161.03;;;10.56;50.92
77871;BME280;67067;46.850;7.578;2023-05-29T02:13:46;95154.16;;;10.55;50.96
77871;BME280;67067;46.850;7.578;2023-05-29T02:14:47;95152.44;;;10.43;51.17
77871;BME280;67067;46.850;7.578;2023-05-29T02:15:52;95150.72;;;10.54;50.97
77871;BME280;67067;46.850;7.578;2023-05-29T02:16:54;95155.50;;;10.57;51.05
77871;BME280;67067;46.850;7.578;2023-05-29T02:17:56;95152.59;;;10.59;50.86
77871;BME280;67067;46.850;7.578;2023-05-29T02:19:01;95149.41;;;10.57;51.02
77871;BME280;67067;46.850;7.578;2023-05-29T02:20:04;95154.69;;;10.57;50.73
77871;BME280;67067;46.850;7.578;2023-05-29T02:21:09;95152.84;;;10.57;51.02
77871;BME280;67067;46.850;7.578;2023-05-29T02:22:13;95152.00;;;10.51;50.99
77871;BME280;67067;46.850;7.578;2023-05-29T02:23:23;95156.78;;;10.55;51.15
77871;BME280;67067;46.850;7.578;2023-05-29T02:24:29;95159.88;;;10.46;51.44
77871;BME280;67067;46.850;7.578;2023-05-29T02:25:41;95159.25;;;10.34;52.00
77871;BME280;67067;46.850;7.578;2023-05-29T02:26:43;95158.69;;;10.32;51.87
77871;BME280;67067;46.850;7.578;2023-05-29T02:27:46;95150.22;;;10.30;51.80
77871;BME280;67067;46.850;7.578;2023-05-29T02:28:58;95155.00;;;10.33;51.76
77871;BME280;67067;46.850;7.578;2023-05-29T02:30:03;95153.09;;;10.28;51.79
77871;BME280;67067;46.850;7.578;2023-05-29T02:31:12;95152.00;;;10.24;51.61
77871;BME280;67067;46.850;7.578;2023-05-29T02:32:17;95152.28;;;10.22;51.65
77871;BME280;67067;46.850;7.578;2023-05-29T02:33:21;95152.81;;;10.24;51.79
77871;BME280;67067;46.850;7.578;2023-05-29T02:34:28;95156.53;;;10.23;51.98
77871;BME280;67067;46.850;7.578;2023-05-29T02:35:30;95153.88;;;10.23;52.05
77871;BME280;67067;46.850;7.578;2023-05-29T02:36:32;95150.13;;;10.19;51.73
77871;BME280;67067;46.850;7.578;2023-05-29T02:37:33;95151.00;;;10.03;51.99
77871;BME280;67067;46.850;7.578;2023-05-29T02:38:39;95150.09;;;10.14;52.00
77871;BME280;67067;46.850;7.578;2023-05-29T02:39:41;95148.22;;;10.15;52.02
77871;BME280;67067;46.850;7.578;2023-05-29T02:40:45;95153.53;;;10.15;51.73
77871;BME280;67067;46.850;7.578;2023-05-29T02:41:51;95150.63;;;10.16;51.90
77871;BME280;67067;46.850;7.578;2023-05-29T02:42:53;95154.34;;;10.15;51.92
77871;BME280;67067;46.850;7.578;2023-05-29T02:43:55;95155.22;;;9.99;51.96
77871;BME280;67067;46.850;7.578;2023-05-29T02:44:59;95151.63;;;10.10;51.80
77871;BME280;67067;46.850;7.578;2023-05-29T02:46:03;95151.63;;;10.10;51.85
77871;BME280;67067;46.850;7.578;2023-05-29T02:47:09;95150.31;;;10.13;52.02
77871;BME280;67067;46.850;7.578;2023-05-29T02:48:18;95153.25;;;10.11;52.12
77871;BME280;67067;46.850;7.578;2023-05-29T02:49:22;95146.34;;;10.10;51.97
77871;BME280;67067;46.850;7.578;2023-05-29T02:50:31;95147.94;;;10.11;51.97
77871;BME280;67067;46.850;7.578;2023-05-29T02:51:33;95145.13;;;9.95;52.00
77871;BME280;67067;46.850;7.578;2023-05-29T02:52:37;95145.22;;;10.06;52.27
77871;BME280;67067;46.850;7.578;2023-05-29T02:53:53;95153.75;;;10.08;52.21
77871;BME280;67067;46.850;7.578;2023-05-29T02:54:59;95149.03;;;10.15;52.31
77871;BME280;67067;46.850;7.578;2023-05-29T02:56:06;95149.03;;;10.15;52.17
77871;BME280;67067;46.850;7.578;2023-05-29T02:57:15;95149.53;;;10.12;52.32
77871;BME280;67067;46.850;7.578;2023-05-29T02:58:35;95145.84;;;10.13;52.09
77871;BME280;67067;46.850;7.578;2023-05-29T02:59:37;95146.91;;;10.12;51.98
77871;BME280;67067;46.850;7.578;2023-05-29T03:00:39;95145.63;;;9.92;52.27
77871;BME280;67067;46.850;7.578;2023-05-29T03:01:40;95143.03;;;9.98;52.11
77871;BME280;67067;46.850;7.578;2023-05-29T03:02:53;95146.78;;;10.02;52.14
77871;BME280;67067;46.850;7.578;2023-05-29T03:04:06;95147.00;;;9.95;52.50
77871;BME280;67067;46.850;7.578;2023-05-29T03:05:14;95147.28;;;9.99;52.45
77871;BME280;67067;46.850;7.578;2023-05-29T03:06:20;95141.75;;;10.00;52.36
77871;BME280;67067;46.850;7.578;2023-05-29T03:07:26;95140.69;;;10.01;52.47
77871;BME280;67067;46.850;7.578;2023-05-29T03:08:30;95142.31;;;10.02;52.42
77871;BME280;67067;46.850;7.578;2023-05-29T03:09:40;95149.41;;;10.02;52.28
77871;BME280;67067;46.850;7.578;2023-05-29T03:10:43;95142.00;;;9.99;52.42
77871;BME280;67067;46.850;7.578;2023-05-29T03:11:53;95137.25;;;10.01;52.19
77871;BME280;67067;46.850;7.578;2023-05-29T03:13:13;95143.09;;;10.03;52.70
77871;BME280;67067;46.850;7.578;2023-05-29T03:14:23;95147.59;;;10.02;52.58
77871;BME280;67067;46.850;7.578;2023-05-29T03:15:25;95148.88;;;10.00;52.62
77871;BME280;67067;46.850;7.578;2023-05-29T03:16:29;95148.22;;;9.87;52.68
77871;BME280;67067;46.850;7.578;2023-05-29T03:17:33;95139.09;;;10.00;52.69
77871;BME280;67067;46.850;7.578;2023-05-29T03:18:35;95134.47;;;9.85;52.75
77871;BME280;67067;46.850;7.578;2023-05-29T03:19:37;95139.84;;;9.95;52.85
77871;BME280;67067;46.850;7.578;2023-05-29T03:20:48;95145.13;;;9.95;52.59
77871;BME280;67067;46.850;7.578;2023-05-29T03:22:05;95135.56;;;9.89;52.86
77871;BME280;67067;46.850;7.578;2023-05-29T03:23:11;95137.16;;;9.90;52.82
77871;BME280;67067;46.850;7.578;2023-05-29T03:24:16;95135.31;;;9.91;53.02
77871;BME280;67067;46.850;7.578;2023-05-29T03:25:24;95135.56;;;9.89;52.93
77871;BME280;67067;46.850;7.578;2023-05-29T03:26:34;95142.38;;;9.85;52.85
77871;BME280;67067;46.850;7.578;2023-05-29T03:27:40;95141.34;;;9.86;52.72
77871;BME280;67067;46.850;7.578;2023-05-29T03:28:53;95147.94;;;9.84;52.72
77871;BME280;67067;46.850;7.578;2023-05-29T03:30:00;95154.81;;;9.85;52.49
77871;BME280;67067;46.850;7.578;2023-05-29T03:31:09;95147.94;;;9.84;52.52
77871;BME280;67067;46.850;7.578;2023-05-29T03:32:11;95146.34;;;9.83;52.44
77871;BME280;67067;46.850;7.578;2023-05-29T03:33:13;95150.72;;;9.72;52.68
77871;BME280;67067;46.850;7.578;2023-05-29T03:34:37;95151.31;;;9.79;52.62
77871;BME280;67067;46.850;7.578;2023-05-29T03:35:43;95147.06;;;9.78;52.75
77871;BME280;67067;46.850;7.578;2023-05-29T03:36:53;95148.13;;;9.77;52.63
77871;BME280;67067;46.850;7.578;2023-05-29T03:37:57;95150.25;;;9.80;52.79
77871;BME280;67067;46.850;7.578;2023-05-29T03:38:59;95144.97;;;9.80;52.79
77871;BME280;67067;46.850;7.578;2023-05-29T03:40:17;95143.66;;;9.77;52.90
77871;BME280;67067;46.850;7.578;2023-05-29T03:41:18;95147.94;;;9.84;52.72
77871;BME280;67067;46.850;7.578;2023-05-29T03:42:33;95144.44;;;9.78;52.98
77871;BME280;67067;46.850;7.578;2023-05-29T03:43:37;95148.94;;;9.77;53.01
77871;BME280;67067;46.850;7.578;2023-05-29T03:44:49;95149.72;;;9.78;52.88
77871;BME280;67067;46.850;7.578;2023-05-29T03:45:50;95150.75;;;9.77;53.03
77871;BME280;67067;46.850;7.578;2023-05-29T03:46:52;95151.09;;;9.58;53.16
77871;BME280;67067;46.850;7.578;2023-05-29T03:48:00;95151.16;;;9.63;53.23
77871;BME280;67067;46.850;7.578;2023-05-29T03:49:06;95158.59;;;9.66;52.88
77871;BME280;67067;46.850;7.578;2023-05-29T03:50:20;95160.41;;;9.66;52.96
77871;BME280;67067;46.850;7.578;2023-05-29T03:51:22;95164.59;;;9.62;53.05
77871;BME280;67067;46.850;7.578;2023-05-29T03:52:31;95164.38;;;9.63;52.87
77871;BME280;67067;46.850;7.578;2023-05-29T03:53:33;95159.63;;;9.65;52.82
77871;BME280;67067;46.850;7.578;2023-05-29T03:54:37;95164.25;;;9.53;52.98
77871;BME280;67067;46.850;7.578;2023-05-29T03:55:41;95161.72;;;9.63;53.03
77871;BME280;67067;46.850;7.578;2023-05-29T03:56:45;95160.41;;;9.66;52.85
77871;BME280;67067;46.850;7.578;2023-05-29T03:57:58;95165.16;;;9.64;52.68
77871;BME280;67067;46.850;7.578;2023-05-29T03:59:10;95164.09;;;9.65;52.77
77871;BME280;67067;46.850;7.578;2023-05-29T04:00:28;95163.88;;;9.66;52.88
77871;BME280;67067;46.850;7.578;2023-05-29T04:01:34;95169.72;;;9.69;53.01
77871;BME280;67067;46.850;7.578;2023-05-29T04:02:37;95165.47;;;9.68;53.00
77871;BME280;67067;46.850;7.578;2023-05-29T04:03:42;95166.50;;;9.66;53.25
77871;BME280;67067;46.850;7.578;2023-05-29T04:04:47;95174.44;;;9.66;52.84
77871;BME280;67067;46.850;7.578;2023-05-29T04:05:51;95170.44;;;9.64;52.92
77871;BME280;67067;46.850;7.578;2023-05-29T04:06:56;95171.25;;;9.64;53.12
77871;BME280;67067;46.850;7.578;2023-05-29T04:08:01;95170.44;;;9.64;53.00
77871;BME280;67067;46.850;7.578;2023-05-29T04:09:17;95168.34;;;9.66;52.85
77871;BME280;67067;46.850;7.578;2023-05-29T04:10:23;95170.75;;;9.68;52.90
77871;BME280;67067;46.850;7.578;2023-05-29T04:11:36;95172.34;;;9.69;52.91
77871;BME280;67067;46.850;7.578;2023-05-29T04:12:40;95170.75;;;9.68;52.88
77871;BME280;67067;46.850;7.578;2023-05-29T04:13:41;95170.63;;;9.57;53.15
77871;BME280;67067;46.850;7.578;2023-05-29T04:14:48;95177.13;;;9.72;52.77
77871;BME280;67067;46.850;7.578;2023-05-29T04:15:49;95177.47;;;9.75;53.11
77871;BME280;67067;46.850;7.578;2023-05-29T04:17:02;95178.78;;;9.78;52.86
77871;BME280;67067;46.850;7.578;2023-05-29T04:18:16;95179.34;;;9.80;52.74
77871;BME280;67067;46.850;7.578;2023-05-29T04:19:20;95171.47;;;9.85;52.90
77871;BME280;67067;46.850;7.578;2023-05-29T04:20:28;95177.84;;;9.89;52.76
77871;BME280;67067;46.850;7.578;2023-05-29T04:21:32;95177.31;;;9.87;52.92
77871;BME280;67067;46.850;7.578;2023-05-29T04:22:44;95181.31;;;9.90;52.70
77871;BME280;67067;46.850;7.578;2023-05-29T04:23:53;95181.03;;;9.91;52.74
77871;BME280;67067;46.850;7.578;2023-05-29T04:24:55;95178.78;;;9.78;52.89
77871;BME280;67067;46.850;7.578;2023-05-29T04:26:04;95182.66;;;9.92;52.61
77871;BME280;67067;46.850;7.578;2023-05-29T04:27:11;95180.06;;;9.98;52.80
77871;BME280;67067;46.850;7.578;2023-05-29T04:28:18;95185.66;;;10.01;52.72
77871;BME280;67067;46.850;7.578;2023-05-29T04:29:25;95184.88;;;10.06;52.91
77871;BME280;67067;46.850;7.578;2023-05-29T04:32:43;95184.84;;;10.01;52.97
77871;BME280;67067;46.850;7.578;2023-05-29T04:33:54;95189.09;;;10.02;52.86
77871;BME280;67067;46.850;7.578;2023-05-29T04:35:10;95188.03;;;10.03;52.79
77871;BME280;67067;46.850;7.578;2023-05-29T04:36:18;95185.72;;;10.06;52.87
77871;BME280;67067;46.850;7.578;2023-05-29T04:37:24;95184.97;;;10.11;52.60
77871;BME280;67067;46.850;7.578;2023-05-29T04:38:32;95189.81;;;10.19;52.55
77871;BME280;67067;46.850;7.578;2023-05-29T04:39:37;95187.72;;;10.21;52.71
77871;BME280;67067;46.850;7.578;2023-05-29T04:40:42;95195.69;;;10.27;52.37
77871;BME280;67067;46.850;7.578;2023-05-29T04:42:02;95195.28;;;10.13;52.88
77871;BME280;67067;46.850;7.578;2023-05-29T04:43:05;95193.03;;;10.27;52.61
77871;BME280;67067;46.850;7.578;2023-05-29T04:44:31;95193.63;;;10.34;52.32
77871;BME280;67067;46.850;7.578;2023-05-29T04:45:34;95196.56;;;10.37;52.16
77871;BME280;67067;46.850;7.578;2023-05-29T04:46:50;95194.47;;;10.39;52.09
77871;BME280;67067;46.850;7.578;2023-05-29T04:47:54;95196.66;;;10.43;52.02
77871;BME280;67067;46.850;7.578;2023-05-29T04:49:01;95200.16;;;10.48;52.01
77871;BME280;67067;46.850;7.578;2023-05-29T04:50:14;95191.19;;;10.55;51.97
77871;BME280;67067;46.850;7.578;2023-05-29T04:51:17;95196.78;;;10.58;51.87
77871;BME280;67067;46.850;7.578;2023-05-29T04:52:22;95189.69;;;10.64;52.01
77871;BME280;67067;46.850;7.578;2023-05-29T04:53:26;95197.66;;;10.69;51.93
77871;BME280;67067;46.850;7.578;2023-05-29T04:54:28;95200.78;;;10.61;52.20
77871;BME280;67067;46.850;7.578;2023-05-29T04:55:31;95201.97;;;10.75;52.13
77871;BME280;67067;46.850;7.578;2023-05-29T04:56:32;95196.06;;;10.68;52.00
77871;BME280;67067;46.850;7.578;2023-05-29T04:57:44;95200.69;;;10.83;51.59
77871;BME280;67067;46.850;7.578;2023-05-29T04:58:48;95199.94;;;10.88;51.43
77871;BME280;67067;46.850;7.578;2023-05-29T05:00:04;95199.63;;;10.84;51.80
77871;BME280;67067;46.850;7.578;2023-05-29T05:01:46;95200.47;;;10.90;51.86
77871;BME280;67067;46.850;7.578;2023-05-29T05:02:52;95198.91;;;10.94;51.63
77871;BME280;67067;46.850;7.578;2023-05-29T05:04:07;95197.34;;;10.98;51.50
77871;BME280;67067;46.850;7.578;2023-05-29T05:05:11;95196.56;;;11.03;51.68
77871;BME280;67067;46.850;7.578;2023-05-29T05:06:15;95194.75;;;11.03;51.66
77871;BME280;67067;46.850;7.578;2023-05-29T05:07:19;95206.94;;;11.04;51.55
77871;BME280;67067;46.850;7.578;2023-05-29T05:08:45;95200.03;;;11.03;51.66
77871;BME280;67067;46.850;7.578;2023-05-29T05:09:49;95200.06;;;11.08;51.53
77871;BME280;67067;46.850;7.578;2023-05-29T05:11:03;95206.97;;;11.09;51.49
77871;BME280;67067;46.850;7.578;2023-05-29T05:12:07;95198.00;;;11.16;51.12
77871;BME280;67067;46.850;7.578;2023-05-29T05:13:29;95212.59;;;11.18;51.17
77871;BME280;67067;46.850;7.578;2023-05-29T05:14:47;95203.34;;;11.26;51.27
77871;BME280;67067;46.850;7.578;2023-05-29T05:16:01;95208.16;;;11.34;51.16
77871;BME280;67067;46.850;7.578;2023-05-29T05:17:07;95207.19;;;11.46;51.11
77871;BME280;67067;46.850;7.578;2023-05-29T05:18:09;95206.59;;;11.38;51.32
77871;BME280;67067;46.850;7.578;2023-05-29T05:19:11;95205.69;;;11.60;50.95
77871;BME280;67067;46.850;7.578;2023-05-29T05:20:17;95207.34;;;11.77;50.81
77871;BME280;67067;46.850;7.578;2023-05-29T05:21:32;95212.69;;;11.92;50.67
77871;BME280;67067;46.850;7.578;2023-05-29T05:22:39;95209.81;;;12.09;50.35
77871;BME280;67067;46.850;7.578;2023-05-29T05:23:50;95199.53;;;12.34;49.97
77871;BME280;67067;46.850;7.578;2023-05-29T05:25:00;95207.00;;;12.63;49.36
77871;BME280;67067;46.850;7.578;2023-05-29T05:26:05;95206.47;;;12.97;49.00
77871;BME280;67067;46.850;7.578;2023-05-29T05:27:11;95213.84;;;13.36;48.19
77871;BME280;67067;46.850;7.578;2023-05-29T05:28:12;95206.34;;;13.69;47.44
77871;BME280;67067;46.850;7.578;2023-05-29T05:29:15;95214.06;;;14.26;46.56
77871;BME280;67067;46.850;7.578;2023-05-29T05:30:23;95204.22;;;14.72;45.85
77871;BME280;67067;46.850;7.578;2023-05-29T05:31:25;95207.56;;;15.12;44.75
77871;BME280;67067;46.850;7.578;2023-05-29T05:32:55;95214.84;;;15.36;44.18
77871;BME280;67067;46.850;7.578;2023-05-29T05:33:57;95213.28;;;15.30;43.84
77871;BME280;67067;46.850;7.578;2023-05-29T05:35:00;95208.31;;;15.23;43.74
77871;BME280;67067;46.850;7.578;2023-05-29T05:36:07;95212.13;;;15.12;43.67
77871;BME280;67067;46.850;7.578;2023-05-29T05:37:11;95218.91;;;14.99;43.34
77871;BME280;67067;46.850;7.578;2023-05-29T05:38:39;95212.63;;;14.84;43.48
77871;BME280;67067;46.850;7.578;2023-05-29T05:39:47;95214.31;;;14.75;43.83
77871;BME280;67067;46.850;7.578;2023-05-29T05:40:58;95210.09;;;14.64;43.99
77871;BME280;67067;46.850;7.578;2023-05-29T05:42:08;95212.84;;;14.53;44.15
77871;BME280;67067;46.850;7.578;2023-05-29T05:43:27;95217.94;;;14.50;44.40
77871;BME280;67067;46.850;7.578;2023-05-29T05:44:40;95215.34;;;14.39;44.53
77871;BME280;67067;46.850;7.578;2023-05-29T05:46:06;95210.59;;;14.31;44.95
77871;BME280;67067;46.850;7.578;2023-05-29T05:47:11;95213.53;;;14.29;45.10
77871;BME280;67067;46.850;7.578;2023-05-29T05:48:19;95211.41;;;14.26;45.01
77871;BME280;67067;46.850;7.578;2023-05-29T05:49:25;95214.34;;;14.20;45.50
77871;BME280;67067;46.850;7.578;2023-05-29T05:50:46;95218.63;;;14.15;45.54
77871;BME280;67067;46.850;7.578;2023-05-29T05:51:48;95216.78;;;14.16;45.55
77871;BME280;67067;46.850;7.578;2023-05-29T05:52:53;95222.13;;;14.16;45.78
77871;BME280;67067;46.850;7.578;2023-05-29T05:54:08;95220.53;;;14.15;45.92
77871;BME280;67067;46.850;7.578;2023-05-29T05:55:10;95220.53;;;14.15;45.75
77871;BME280;67067;46.850;7.578;2023-05-29T05:56:33;95220.25;;;14.11;45.75
77871;BME280;67067;46.850;7.578;2023-05-29T05:57:46;95224.00;;;14.10;45.91
77871;BME280;67067;46.850;7.578;2023-05-29T05:58:48;95228.22;;;14.16;45.88
77871;BME280;67067;46.850;7.578;2023-05-29T05:59:54;95227.94;;;14.18;46.09
77871;BME280;67067;46.850;7.578;2023-05-29T06:01:07;95225.81;;;14.20;45.71
77871;BME280;67067;46.850;7.578;2023-05-29T06:02:11;95228.19;;;14.22;45.19
77871;BME280;67067;46.850;7.578;2023-05-29T06:03:15;95229.00;;;14.22;45.13
77871;BME280;67067;46.850;7.578;2023-05-29T06:04:31;95229.00;;;14.22;45.29
77871;BME280;67067;46.850;7.578;2023-05-29T06:05:33;95229.00;;;14.22;44.99
77871;BME280;67067;46.850;7.578;2023-05-29T06:06:40;95221.53;;;14.24;44.88
77871;BME280;67067;46.850;7.578;2023-05-29T06:07:47;95223.38;;;14.29;44.82
77871;BME280;67067;46.850;7.578;2023-05-29T06:08:59;95221.25;;;14.31;44.56
77871;BME280;67067;46.850;7.578;2023-05-29T06:10:07;95223.63;;;14.33;44.71